Time;durP1;ratioP1;P1;durP2;ratioP2;P2;SDS_P1;SDS_P2;PMS_P1;PMS_P2;Temp;Humidity;BMP_temperature;BMP_pressure;BME280_temperature;BME280_humidity;BME280_pressure;Samples;Min_cycle;Max_cycle;Signal;HPM_P1;HPM_P2
2022/06/18 00:00:50;;;;;;;;;;;21.50;60.10;;;;;;5050060;28;19917;-80
2022/06/18 00:03:16;;;;;;;;;;;21.50;60.50;;;;;;5034206;28;19909;-80
2022/06/18 00:05:43;;;;;;;;;;;21.50;60.00;;;;;;5026098;28;20376;-80
2022/06/18 00:08:14;;;;;;;;;;;21.50;59.90;;;;;;5019043;28;19967;-80
2022/06/18 00:10:39;;;;;;;;;;;21.50;60.00;;;;;;5042535;28;20783;-80
2022/06/18 00:15:59;;;;;;;;;;;21.40;60.40;;;;;;5052386;28;19927;-80
2022/06/18 00:18:25;;;;;;;;;;;21.40;59.80;;;;;;5032811;28;20233;-80
2022/06/18 00:20:50;;;;;;;;;;;21.40;59.70;;;;;;5033314;28;19915;-80
2022/06/18 00:23:16;;;;;;;;;;;21.40;60.10;;;;;;5025501;28;20008;-79
2022/06/18 00:25:46;;;;;;;;;;;21.40;59.70;;;;;;5030833;28;19916;-79
2022/06/18 00:28:19;;;;;;;;;;;21.50;59.80;;;;;;5051407;28;19916;-80
2022/06/18 00:30:45;;;;;;;;;;;21.50;59.70;;;;;;5029566;28;19977;-80
2022/06/18 00:33:11;;;;;;;;;;;21.60;59.40;;;;;;5031170;28;19921;-80
2022/06/18 00:35:37;;;;;;;;;;;21.50;59.80;;;;;;5033058;28;19928;-80
2022/06/18 00:38:03;;;;;;;;;;;21.60;59.60;;;;;;5052106;28;19917;-80
2022/06/18 00:40:32;;;;;;;;;;;21.50;59.60;;;;;;5049482;28;19920;-79
2022/06/18 00:43:05;;;;;;;;;;;21.50;59.40;;;;;;5034483;28;19919;-80
2022/06/18 00:45:31;;;;;;;;;;;21.50;59.60;;;;;;5047234;28;19913;-79
2022/06/18 00:48:01;;;;;;;;;;;21.50;60.50;;;;;;5028399;28;19912;-80
2022/06/18 00:50:33;;;;;;;;;;;21.50;60.60;;;;;;5051748;28;19913;-80
2022/06/18 00:53:07;;;;;;;;;;;21.40;60.70;;;;;;5038160;28;19913;-80
2022/06/18 00:55:35;;;;;;;;;;;21.40;60.40;;;;;;5063590;28;19916;-83
2022/06/18 00:58:03;;;;;;;;;;;21.30;60.40;;;;;;5041756;28;19959;-80
2022/06/18 01:00:34;;;;;;;;;;;21.30;60.80;;;;;;5049817;28;20374;-78
2022/06/18 01:02:59;;;;;;;;;;;21.30;60.80;;;;;;5051656;28;19913;-78
2022/06/18 01:05:26;;;;;;;;;;;21.20;61.00;;;;;;5050797;28;19978;-79
2022/06/18 01:07:57;;;;;;;;;;;21.20;61.30;;;;;;5033932;28;19913;-79
2022/06/18 01:10:26;;;;;;;;;;;21.20;61.30;;;;;;5041580;28;19913;-78
2022/06/18 01:12:52;;;;;;;;;;;21.10;61.10;;;;;;5051650;28;19913;-78
2022/06/18 01:15:21;;;;;;;;;;;21.20;61.40;;;;;;5034246;28;19967;-78
2022/06/18 01:17:48;;;;;;;;;;;21.10;61.60;;;;;;5031801;28;19917;-78
2022/06/18 01:20:14;;;;;;;;;;;21.10;61.20;;;;;;5045969;28;20865;-78
2022/06/18 01:22:45;;;;;;;;;;;21.20;61.70;;;;;;5033807;28;20011;-78
2022/06/18 01:25:11;;;;;;;;;;;21.10;61.60;;;;;;5027823;28;19982;-78
2022/06/18 01:27:37;;;;;;;;;;;21.10;61.60;;;;;;5045702;28;20015;-78
2022/06/18 01:30:14;;;;;;;;;;;21.10;61.10;;;;;;5029959;28;19970;-78
2022/06/18 01:32:39;;;;;;;;;;;21.10;61.20;;;;;;5050584;28;20004;-78
2022/06/18 01:35:05;;;;;;;;;;;21.10;61.10;;;;;;5029180;28;19967;-78
2022/06/18 01:37:31;;;;;;;;;;;21.10;60.90;;;;;;5057047;28;19928;-78
2022/06/18 01:39:56;;;;;;;;;;;21.20;60.30;;;;;;5049596;28;19998;-78
2022/06/18 01:42:31;;;;;;;;;;;21.30;60.10;;;;;;5030539;28;20423;-78
2022/06/18 01:45:02;;;;;;;;;;;21.40;59.70;;;;;;5032822;28;19981;-78
2022/06/18 01:47:31;;;;;;;;;;;21.40;60.00;;;;;;5050651;28;19921;-78
2022/06/18 01:50:15;;;;;;;;;;;21.40;60.30;;;;;;5033824;28;19985;-78
2022/06/18 01:52:43;;;;;;;;;;;21.40;60.50;;;;;;5043113;28;19989;-78
2022/06/18 01:55:29;;;;;;;;;;;21.40;60.20;;;;;;5032802;28;19921;-78
2022/06/18 01:57:57;;;;;;;;;;;21.40;59.80;;;;;;5051147;28;19952;-78
2022/06/18 02:00:24;;;;;;;;;;;21.40;60.00;;;;;;5032241;28;19913;-78
2022/06/18 02:02:50;;;;;;;;;;;21.50;59.90;;;;;;5038086;28;20294;-77
2022/06/18 02:05:16;;;;;;;;;;;21.50;59.90;;;;;;5050761;28;19945;-78
2022/06/18 02:07:43;;;;;;;;;;;21.50;60.00;;;;;;5041156;28;19941;-78
2022/06/18 02:10:12;;;;;;;;;;;21.50;60.20;;;;;;5020236;28;20376;-78
2022/06/18 02:12:39;;;;;;;;;;;21.50;59.80;;;;;;5032328;28;19920;-78
2022/06/18 02:15:08;;;;;;;;;;;21.60;59.30;;;;;;5031149;28;20295;-78
2022/06/18 02:17:33;;;;;;;;;;;21.60;59.40;;;;;;5054770;28;19913;-78
2022/06/18 02:20:01;;;;;;;;;;;21.50;59.90;;;;;;5027845;28;19963;-78
2022/06/18 02:22:31;;;;;;;;;;;21.50;59.40;;;;;;5035645;28;20395;-78
2022/06/18 02:24:57;;;;;;;;;;;21.60;58.40;;;;;;5035981;28;19913;-78
2022/06/18 02:27:23;;;;;;;;;;;21.60;58.20;;;;;;5049586;28;20505;-78
2022/06/18 02:29:48;;;;;;;;;;;21.60;58.50;;;;;;5036109;28;19912;-78
2022/06/18 02:32:34;;;;;;;;;;;21.60;58.20;;;;;;5050137;28;19913;-78
2022/06/18 02:35:00;;;;;;;;;;;21.60;57.90;;;;;;5057490;28;19936;-78
2022/06/18 02:37:27;;;;;;;;;;;21.70;58.40;;;;;;5041473;28;19932;-78
2022/06/18 02:39:52;;;;;;;;;;;21.60;58.30;;;;;;5054316;28;19915;-78
2022/06/18 02:42:19;;;;;;;;;;;21.60;58.30;;;;;;5052650;28;20259;-78
2022/06/18 02:44:46;;;;;;;;;;;21.60;58.60;;;;;;5036380;28;19915;-78
2022/06/18 02:47:12;;;;;;;;;;;21.50;59.60;;;;;;5035543;28;19920;-78
2022/06/18 02:49:39;;;;;;;;;;;21.50;59.10;;;;;;5047070;28;19917;-78
2022/06/18 02:52:05;;;;;;;;;;;21.60;58.10;;;;;;5025723;28;19914;-78
2022/06/18 02:54:30;;;;;;;;;;;21.60;58.60;;;;;;5046970;28;20278;-78
2022/06/18 02:56:57;;;;;;;;;;;21.60;58.30;;;;;;5051188;28;20342;-78
2022/06/18 02:59:23;;;;;;;;;;;21.60;58.30;;;;;;5028170;28;20019;-78
2022/06/18 03:01:48;;;;;;;;;;;21.60;59.50;;;;;;5031133;28;19917;-78
2022/06/18 03:04:14;;;;;;;;;;;21.70;57.90;;;;;;5042557;28;19909;-79
2022/06/18 03:06:39;;;;;;;;;;;21.60;58.90;;;;;;5032449;28;20454;-78
2022/06/18 03:09:05;;;;;;;;;;;21.60;58.40;;;;;;5032090;28;20332;-78
2022/06/18 03:14:15;;;;;;;;;;;21.50;59.00;;;;;;5049814;28;19963;-77
2022/06/18 03:16:41;;;;;;;;;;;21.50;59.20;;;;;;5030133;28;20401;-78
2022/06/18 03:19:07;;;;;;;;;;;21.50;59.40;;;;;;5029613;28;19913;-78
2022/06/18 03:21:41;;;;;;;;;;;21.50;59.60;;;;;;5042284;28;20448;-78
2022/06/18 03:24:06;;;;;;;;;;;21.50;59.50;;;;;;5054420;28;20318;-78
2022/06/18 03:26:35;;;;;;;;;;;21.50;59.60;;;;;;5031044;28;19935;-79
2022/06/18 03:29:01;;;;;;;;;;;21.50;60.00;;;;;;5028177;28;19913;-79
2022/06/18 03:31:26;;;;;;;;;;;21.40;60.20;;;;;;5033060;28;19909;-79
2022/06/18 03:33:52;;;;;;;;;;;21.30;60.40;;;;;;5048543;28;20253;-78
2022/06/18 03:36:19;;;;;;;;;;;21.30;60.30;;;;;;5052669;28;19912;-78
2022/06/18 03:38:44;;;;;;;;;;;21.30;60.80;;;;;;5028455;28;20004;-78
2022/06/18 03:41:10;;;;;;;;;;;21.30;60.80;;;;;;5054432;28;19988;-79
2022/06/18 03:43:36;;;;;;;;;;;21.30;60.70;;;;;;5024906;28;19917;-79
2022/06/18 03:46:05;;;;;;;;;;;21.30;60.80;;;;;;5034122;28;19984;-79
2022/06/18 03:48:45;;;;;;;;;;;21.30;60.90;;;;;;5034784;28;20371;-78
2022/06/18 03:51:12;;;;;;;;;;;21.30;61.60;;;;;;5044088;28;20394;-79
2022/06/18 03:53:37;;;;;;;;;;;21.20;61.50;;;;;;5051247;28;19923;-79
2022/06/18 03:56:03;;;;;;;;;;;21.20;62.10;;;;;;5042108;28;19913;-78
2022/06/18 03:58:29;;;;;;;;;;;21.30;62.10;;;;;;5041994;28;19944;-78
2022/06/18 04:00:55;;;;;;;;;;;21.20;62.10;;;;;;5032162;28;19913;-78
2022/06/18 04:03:20;;;;;;;;;;;21.20;62.40;;;;;;5026989;28;19920;-79
2022/06/18 04:05:45;;;;;;;;;;;21.30;62.70;;;;;;5032979;28;20012;-79
2022/06/18 04:08:17;;;;;;;;;;;21.30;62.30;;;;;;5045691;28;19913;-79
2022/06/18 04:10:43;;;;;;;;;;;21.30;62.30;;;;;;5040698;28;19920;-78
2022/06/18 04:13:09;;;;;;;;;;;21.30;63.60;;;;;;5056469;28;19913;-79
2022/06/18 04:15:35;;;;;;;;;;;21.30;63.30;;;;;;5050931;28;19985;-79
2022/06/18 04:18:00;;;;;;;;;;;21.30;63.00;;;;;;5051024;28;19924;-79
2022/06/18 04:20:29;;;;;;;;;;;21.40;63.30;;;;;;5034101;28;19909;-79
2022/06/18 04:22:54;;;;;;;;;;;21.30;63.80;;;;;;5051032;28;19920;-78
2022/06/18 04:25:20;;;;;;;;;;;21.40;63.40;;;;;;5030310;28;19913;-79
2022/06/18 04:27:46;;;;;;;;;;;21.50;63.40;;;;;;5029417;28;19912;-79
2022/06/18 04:30:12;;;;;;;;;;;21.50;64.10;;;;;;5051675;28;20356;-79
2022/06/18 04:32:38;;;;;;;;;;;21.50;63.90;;;;;;5028285;28;20349;-79
2022/06/18 04:35:05;;;;;;;;;;;21.50;62.60;;;;;;5029094;28;19913;-79
2022/06/18 04:37:30;;;;;;;;;;;21.60;62.70;;;;;;5049029;28;19924;-79
2022/06/18 04:39:56;;;;;;;;;;;21.70;61.10;;;;;;5031765;28;19909;-79
2022/06/18 04:42:22;;;;;;;;;;;21.80;60.60;;;;;;5048783;28;20363;-79
2022/06/18 04:44:48;;;;;;;;;;;21.90;61.00;;;;;;5051084;28;19913;-79
2022/06/18 04:47:13;;;;;;;;;;;22.10;59.70;;;;;;5033434;28;20294;-79
2022/06/18 04:49:39;;;;;;;;;;;22.10;59.70;;;;;;5025617;28;20361;-79
2022/06/18 04:52:04;;;;;;;;;;;22.10;59.50;;;;;;5033762;28;19916;-79
2022/06/18 04:54:30;;;;;;;;;;;22.10;59.30;;;;;;5048570;28;19920;-79
2022/06/18 04:56:55;;;;;;;;;;;22.30;59.30;;;;;;5031895;28;19944;-79
2022/06/18 04:59:21;;;;;;;;;;;22.40;58.80;;;;;;5050269;28;20003;-79
2022/06/18 05:01:57;;;;;;;;;;;22.50;58.80;;;;;;5032655;28;19920;-79
2022/06/18 05:04:22;;;;;;;;;;;22.50;58.60;;;;;;5031075;28;19982;-79
2022/06/18 05:06:47;;;;;;;;;;;22.50;58.50;;;;;;5022602;28;20483;-80
2022/06/18 05:09:13;;;;;;;;;;;22.60;58.80;;;;;;5050979;28;19963;-80
2022/06/18 05:11:38;;;;;;;;;;;22.70;58.50;;;;;;5028153;28;19916;-79
2022/06/18 05:14:04;;;;;;;;;;;22.70;58.40;;;;;;5051123;28;19965;-79
2022/06/18 05:16:29;;;;;;;;;;;22.80;58.30;;;;;;5034049;28;19925;-79
2022/06/18 05:18:55;;;;;;;;;;;22.90;58.30;;;;;;5047844;28;19956;-79
2022/06/18 05:21:20;;;;;;;;;;;22.90;57.80;;;;;;5029703;28;20007;-79
2022/06/18 05:23:46;;;;;;;;;;;22.90;57.90;;;;;;5054412;28;19924;-79
2022/06/18 05:26:13;;;;;;;;;;;23.00;57.90;;;;;;5050656;28;20492;-79
2022/06/18 05:28:38;;;;;;;;;;;23.00;58.20;;;;;;5047045;28;19913;-79
2022/06/18 05:31:04;;;;;;;;;;;23.10;58.20;;;;;;5044917;28;19924;-79
2022/06/18 05:33:29;;;;;;;;;;;23.10;58.00;;;;;;5044920;28;19920;-79
2022/06/18 05:35:55;;;;;;;;;;;23.20;57.70;;;;;;5031377;28;20433;-79
2022/06/18 05:38:21;;;;;;;;;;;23.30;57.80;;;;;;5044719;28;20324;-79
2022/06/18 05:40:47;;;;;;;;;;;23.30;57.50;;;;;;5033011;28;19955;-80
2022/06/18 05:43:12;;;;;;;;;;;23.30;57.80;;;;;;5031754;28;19917;-79
2022/06/18 05:45:38;;;;;;;;;;;23.50;57.60;;;;;;5051061;28;19970;-79
2022/06/18 05:48:04;;;;;;;;;;;23.50;57.70;;;;;;5028223;28;19948;-79
2022/06/18 05:50:29;;;;;;;;;;;23.60;57.50;;;;;;5049572;28;19916;-79
2022/06/18 05:52:55;;;;;;;;;;;23.60;57.30;;;;;;5030541;28;19916;-79
2022/06/18 05:55:20;;;;;;;;;;;23.70;56.90;;;;;;5028473;28;19924;-79
2022/06/18 05:57:47;;;;;;;;;;;23.70;56.30;;;;;;5045365;28;19942;-79
2022/06/18 06:00:14;;;;;;;;;;;23.80;56.60;;;;;;5046894;28;19920;-79
2022/06/18 06:02:40;;;;;;;;;;;23.90;56.20;;;;;;5029843;28;20422;-80
2022/06/18 06:05:05;;;;;;;;;;;23.90;56.50;;;;;;5030650;28;19963;-80
2022/06/18 06:07:31;;;;;;;;;;;23.90;56.80;;;;;;5031990;28;20265;-80
2022/06/18 06:12:41;;;;;;;;;;;24.00;56.60;;;;;;5038404;28;20004;-79
2022/06/18 06:15:06;;;;;;;;;;;24.10;56.40;;;;;;5049338;28;19952;-79
2022/06/18 06:17:32;;;;;;;;;;;24.20;56.10;;;;;;5053806;28;19928;-79
2022/06/18 06:20:06;;;;;;;;;;;24.20;55.70;;;;;;5043896;28;20004;-79
2022/06/18 06:22:31;;;;;;;;;;;24.30;55.50;;;;;;5028710;28;20011;-79
2022/06/18 06:24:57;;;;;;;;;;;24.30;55.10;;;;;;5024014;28;21058;-79
2022/06/18 06:27:22;;;;;;;;;;;24.30;55.10;;;;;;5023322;28;20425;-79
2022/06/18 06:29:48;;;;;;;;;;;24.30;54.90;;;;;;5029873;28;20011;-79
2022/06/18 06:32:13;;;;;;;;;;;24.40;54.50;;;;;;5046706;28;19953;-79
2022/06/18 06:34:38;;;;;;;;;;;24.40;54.40;;;;;;5032013;28;19970;-79
2022/06/18 06:37:04;;;;;;;;;;;24.50;54.90;;;;;;5026071;28;19917;-79
2022/06/18 06:39:30;;;;;;;;;;;24.50;54.60;;;;;;5044807;28;20343;-79
2022/06/18 06:41:55;;;;;;;;;;;24.50;55.00;;;;;;5031654;28;20430;-79
2022/06/18 06:44:20;;;;;;;;;;;24.60;54.30;;;;;;5042766;28;19917;-79
2022/06/18 06:46:46;;;;;;;;;;;24.60;54.40;;;;;;5031778;28;19919;-79
2022/06/18 06:49:11;;;;;;;;;;;24.70;54.40;;;;;;5025640;28;19913;-79
2022/06/18 06:51:38;;;;;;;;;;;24.80;54.50;;;;;;5035358;28;19917;-79
2022/06/18 06:54:04;;;;;;;;;;;24.90;53.80;;;;;;5043775;28;19939;-80
2022/06/18 06:59:14;;;;;;;;;;;25.00;53.80;;;;;;5043521;28;20438;-80
2022/06/18 07:01:39;;;;;;;;;;;25.10;53.60;;;;;;5031334;28;19913;-80
2022/06/18 07:04:06;;;;;;;;;;;25.10;53.00;;;;;;5035211;28;20401;-79
2022/06/18 07:06:33;;;;;;;;;;;25.10;53.90;;;;;;5055852;28;19920;-79
2022/06/18 07:08:58;;;;;;;;;;;25.10;53.70;;;;;;5035173;28;19913;-79
2022/06/18 07:11:24;;;;;;;;;;;25.20;53.70;;;;;;5033499;28;19959;-80
2022/06/18 07:13:49;;;;;;;;;;;25.30;53.10;;;;;;5031904;28;19939;-80
2022/06/18 07:16:15;;;;;;;;;;;25.40;52.60;;;;;;5049590;28;19984;-79
2022/06/18 07:18:41;;;;;;;;;;;25.50;51.70;;;;;;5061707;28;19913;-79
2022/06/18 07:21:09;;;;;;;;;;;25.50;51.20;;;;;;5062628;28;19959;-78
2022/06/18 07:23:35;;;;;;;;;;;25.50;51.70;;;;;;5066728;28;19925;-79
2022/06/18 07:26:00;;;;;;;;;;;25.60;51.50;;;;;;5052825;28;19912;-78
2022/06/18 07:28:26;;;;;;;;;;;25.50;51.40;;;;;;5055588;28;19952;-80
2022/06/18 07:30:51;;;;;;;;;;;25.70;50.40;;;;;;5032839;28;19913;-79
2022/06/18 07:33:19;;;;;;;;;;;25.60;50.60;;;;;;5046873;28;19924;-80
2022/06/18 07:35:45;;;;;;;;;;;25.60;50.50;;;;;;5048989;28;19917;-79
2022/06/18 07:38:10;;;;;;;;;;;25.70;50.80;;;;;;5042562;28;19917;-79
2022/06/18 07:40:44;;;;;;;;;;;25.70;50.60;;;;;;5033875;28;19931;-79
2022/06/18 07:43:12;;;;;;;;;;;25.80;51.30;;;;;;5027439;28;19999;-79
2022/06/18 07:45:37;;;;;;;;;;;25.90;51.10;;;;;;5051474;28;19912;-79
2022/06/18 07:48:03;;;;;;;;;;;26.00;51.00;;;;;;5027597;28;19936;-78
2022/06/18 07:50:29;;;;;;;;;;;26.00;51.10;;;;;;5049328;28;19912;-79
2022/06/18 07:52:54;;;;;;;;;;;26.10;50.90;;;;;;5026632;28;19921;-79
2022/06/18 07:55:22;;;;;;;;;;;26.10;50.60;;;;;;5051655;28;19923;-79
2022/06/18 07:57:47;;;;;;;;;;;26.20;50.20;;;;;;5027258;28;20687;-79
2022/06/18 08:00:16;;;;;;;;;;;26.30;49.70;;;;;;5047918;28;19939;-79
2022/06/18 08:02:42;;;;;;;;;;;26.30;49.90;;;;;;5043027;28;19926;-79
2022/06/18 08:05:08;;;;;;;;;;;26.30;50.30;;;;;;5046834;28;20405;-80
2022/06/18 08:07:34;;;;;;;;;;;26.30;50.70;;;;;;5032098;28;19913;-79
2022/06/18 08:09:59;;;;;;;;;;;26.50;49.60;;;;;;5026551;28;19917;-80
2022/06/18 08:12:25;;;;;;;;;;;26.60;49.20;;;;;;5031773;28;19917;-79
2022/06/18 08:14:51;;;;;;;;;;;26.70;48.40;;;;;;5029468;28;20367;-79
2022/06/18 08:17:16;;;;;;;;;;;26.70;48.70;;;;;;5028404;28;19932;-80
2022/06/18 08:19:41;;;;;;;;;;;26.80;48.50;;;;;;5031039;28;20383;-79
2022/06/18 08:22:07;;;;;;;;;;;26.80;48.20;;;;;;5034078;28;20003;-80
2022/06/18 08:24:33;;;;;;;;;;;26.80;48.50;;;;;;5033114;28;20042;-80
2022/06/18 08:26:59;;;;;;;;;;;26.90;48.10;;;;;;5028470;28;19913;-79
2022/06/18 08:29:25;;;;;;;;;;;26.80;48.90;;;;;;5024725;28;20292;-80
2022/06/18 08:31:50;;;;;;;;;;;26.80;49.10;;;;;;5032466;28;19963;-79
2022/06/18 08:34:16;;;;;;;;;;;26.90;48.60;;;;;;5032102;28;20023;-79
2022/06/18 08:36:42;;;;;;;;;;;27.00;48.40;;;;;;5034493;28;19935;-79
2022/06/18 08:39:08;;;;;;;;;;;27.00;48.30;;;;;;5045926;28;19963;-79
2022/06/18 08:41:57;;;;;;;;;;;27.20;47.70;;;;;;5025506;28;19917;-80
2022/06/18 08:44:41;;;;;;;;;;;27.20;48.20;;;;;;5051656;28;20363;-80
2022/06/18 08:47:25;;;;;;;;;;;27.30;48.40;;;;;;5037745;28;19913;-80
2022/06/18 08:50:09;;;;;;;;;;;27.30;48.20;;;;;;5018266;28;20360;-80
2022/06/18 08:52:47;;;;;;;;;;;27.30;48.20;;;;;;5048157;28;19982;-79
2022/06/18 08:55:13;;;;;;;;;;;27.50;48.30;;;;;;5031717;28;20419;-78
2022/06/18 08:57:45;;;;;;;;;;;27.60;47.80;;;;;;5033394;28;20398;-79
2022/06/18 09:00:11;;;;;;;;;;;27.60;47.70;;;;;;5023135;28;19913;-78
2022/06/18 09:02:56;;;;;;;;;;;27.60;47.60;;;;;;5017152;28;19935;-79
2022/06/18 09:05:29;;;;;;;;;;;27.60;47.70;;;;;;5028715;28;19913;-79
2022/06/18 09:08:26;;;;;;;;;;;27.70;48.30;;;;;;5044647;28;19921;-80
2022/06/18 09:11:07;;;;;;;;;;;27.80;47.30;;;;;;4980244;28;20241;-79
2022/06/18 09:13:57;;;;;;;;;;;27.90;47.40;;;;;;5030365;28;20062;-79
2022/06/18 09:16:25;;;;;;;;;;;28.10;47.50;;;;;;5018024;28;19929;-79
2022/06/18 09:18:55;;;;;;;;;;;28.10;47.60;;;;;;5021334;28;19916;-79
2022/06/18 09:21:30;;;;;;;;;;;28.20;47.00;;;;;;5032569;28;19976;-79
2022/06/18 09:23:59;;;;;;;;;;;28.20;46.70;;;;;;5045181;28;19917;-79
2022/06/18 09:26:41;;;;;;;;;;;28.20;47.10;;;;;;5027286;28;19913;-79
2022/06/18 09:29:13;;;;;;;;;;;28.30;47.00;;;;;;5047004;28;19970;-79
2022/06/18 09:31:45;;;;;;;;;;;28.50;46.70;;;;;;5034982;28;19944;-79
2022/06/18 09:34:18;;;;;;;;;;;28.50;45.80;;;;;;5030310;28;19964;-79
2022/06/18 09:36:45;;;;;;;;;;;28.60;45.70;;;;;;5040431;28;19920;-79
2022/06/18 09:39:15;;;;;;;;;;;28.60;45.10;;;;;;5027438;28;19913;-79
2022/06/18 09:41:52;;;;;;;;;;;28.60;45.40;;;;;;5023306;28;19913;-79
2022/06/18 09:44:24;;;;;;;;;;;28.70;45.30;;;;;;5045469;28;19924;-80
2022/06/18 09:46:52;;;;;;;;;;;28.80;44.80;;;;;;5036997;28;19960;-80
2022/06/18 09:49:17;;;;;;;;;;;28.80;45.80;;;;;;5022622;28;19916;-81
2022/06/18 09:52:06;;;;;;;;;;;28.80;45.20;;;;;;5037808;28;19920;-80
2022/06/18 09:54:39;;;;;;;;;;;28.90;45.30;;;;;;5030036;28;19918;-80
2022/06/18 09:57:05;;;;;;;;;;;29.00;43.80;;;;;;5019467;28;19917;-80
2022/06/18 09:59:54;;;;;;;;;;;29.00;44.20;;;;;;5014739;28;19913;-81
2022/06/18 10:02:26;;;;;;;;;;;29.00;44.30;;;;;;5004620;28;19920;-80
2022/06/18 10:07:39;;;;;;;;;;;29.10;42.90;;;;;;5044638;28;20436;-83
2022/06/18 10:10:09;;;;;;;;;;;29.30;43.30;;;;;;5025257;28;20008;-83
2022/06/18 10:12:37;;;;;;;;;;;29.30;43.30;;;;;;5026526;28;20067;-82
2022/06/18 10:15:07;;;;;;;;;;;29.40;43.20;;;;;;5014992;28;19917;-83
2022/06/18 10:17:40;;;;;;;;;;;29.40;42.50;;;;;;5036605;28;19917;-84
2022/06/18 10:20:15;;;;;;;;;;;29.30;43.10;;;;;;5048222;28;20028;-83
2022/06/18 10:22:50;;;;;;;;;;;29.20;43.80;;;;;;5043189;28;19920;-80
2022/06/18 10:25:29;;;;;;;;;;;29.20;43.90;;;;;;5013103;28;19909;-81
2022/06/18 10:28:13;;;;;;;;;;;29.30;42.80;;;;;;5035089;28;19914;-83
2022/06/18 10:30:47;;;;;;;;;;;29.30;43.40;;;;;;5025134;28;20324;-83
2022/06/18 10:33:25;;;;;;;;;;;29.30;43.80;;;;;;5048194;28;19909;-83
2022/06/18 10:35:53;;;;;;;;;;;29.30;43.90;;;;;;5032955;28;20734;-84
2022/06/18 10:38:41;;;;;;;;;;;29.40;43.20;;;;;;5039895;28;19913;-87
2022/06/18 10:41:10;;;;;;;;;;;29.50;42.60;;;;;;5044815;28;19940;-84
2022/06/18 10:43:54;;;;;;;;;;;29.60;42.90;;;;;;5048816;28;19912;-84
2022/06/18 10:46:20;;;;;;;;;;;29.70;43.60;;;;;;5040316;28;20287;-83
2022/06/18 10:48:54;;;;;;;;;;;29.80;42.70;;;;;;5021575;28;20182;-82
2022/06/18 10:51:24;;;;;;;;;;;29.80;43.10;;;;;;5029881;28;20466;-82
2022/06/18 10:53:57;;;;;;;;;;;29.80;43.70;;;;;;5057270;28;19917;-82
2022/06/18 10:56:23;;;;;;;;;;;29.90;43.10;;;;;;5038208;28;19913;-82
2022/06/18 10:58:56;;;;;;;;;;;30.00;42.40;;;;;;5060110;28;20014;-81
2022/06/18 11:01:34;;;;;;;;;;;30.10;43.00;;;;;;5070615;28;19976;-79
2022/06/18 11:04:01;;;;;;;;;;;30.20;42.10;;;;;;5069737;28;19986;-80
2022/06/18 11:06:27;;;;;;;;;;;30.20;41.60;;;;;;5050001;28;19948;-81
2022/06/18 11:08:58;;;;;;;;;;;30.20;42.20;;;;;;5034403;28;20303;-82
2022/06/18 11:11:25;;;;;;;;;;;30.20;41.90;;;;;;5049917;28;19921;-82
2022/06/18 11:13:51;;;;;;;;;;;30.30;41.10;;;;;;5054307;28;19909;-81
2022/06/18 11:16:18;;;;;;;;;;;30.40;41.10;;;;;;5051616;28;19920;-81
2022/06/18 11:18:45;;;;;;;;;;;30.40;42.00;;;;;;5037875;28;19923;-80
2022/06/18 11:21:34;;;;;;;;;;;30.50;41.90;;;;;;5018632;28;19920;-80
2022/06/18 11:24:05;;;;;;;;;;;30.50;41.30;;;;;;5038603;28;19967;-81
2022/06/18 11:26:30;;;;;;;;;;;30.70;42.10;;;;;;5038484;28;19909;-80
2022/06/18 11:28:59;;;;;;;;;;;30.70;41.10;;;;;;5052914;28;19913;-80
2022/06/18 11:31:42;;;;;;;;;;;30.70;41.50;;;;;;5033641;28;19913;-80
2022/06/18 11:34:25;;;;;;;;;;;30.80;41.40;;;;;;5034289;28;19925;-80
2022/06/18 11:36:52;;;;;;;;;;;30.80;41.00;;;;;;5049030;28;20009;-80
2022/06/18 11:39:35;;;;;;;;;;;30.80;39.60;;;;;;5035478;28;19913;-80
2022/06/18 11:42:08;;;;;;;;;;;30.80;38.60;;;;;;5028942;28;19913;-79
2022/06/18 11:44:38;;;;;;;;;;;30.80;38.70;;;;;;5053978;28;19923;-80
2022/06/18 11:47:04;;;;;;;;;;;30.80;37.90;;;;;;5051299;28;19913;-84
2022/06/18 11:49:32;;;;;;;;;;;30.80;38.50;;;;;;5047767;28;20012;-82
2022/06/18 11:52:02;;;;;;;;;;;30.90;38.60;;;;;;5023836;28;19986;-82
2022/06/18 11:54:39;;;;;;;;;;;31.00;38.50;;;;;;5030647;28;19920;-81
2022/06/18 11:57:20;;;;;;;;;;;31.00;37.90;;;;;;5028463;28;19928;-81
2022/06/18 11:59:53;;;;;;;;;;;31.00;38.50;;;;;;5024875;28;19928;-81
2022/06/18 12:02:27;;;;;;;;;;;31.10;39.20;;;;;;5052889;28;19913;-82
2022/06/18 12:05:00;;;;;;;;;;;31.10;39.40;;;;;;5051665;28;19913;-82
2022/06/18 12:07:28;;;;;;;;;;;31.10;39.50;;;;;;5052065;28;19909;-82
2022/06/18 12:09:55;;;;;;;;;;;31.10;38.10;;;;;;5049010;28;20042;-82
2022/06/18 12:12:28;;;;;;;;;;;31.10;38.00;;;;;;5050872;28;19917;-81
2022/06/18 12:14:59;;;;;;;;;;;31.10;38.30;;;;;;5039825;28;19920;-82
2022/06/18 12:17:30;;;;;;;;;;;31.30;37.60;;;;;;5038670;28;20019;-81
2022/06/18 12:20:22;;;;;;;;;;;31.30;37.70;;;;;;5047155;28;20332;-81
2022/06/18 12:22:52;;;;;;;;;;;31.30;37.40;;;;;;5027095;28;19905;-81
2022/06/18 12:25:18;;;;;;;;;;;31.50;35.80;;;;;;5033279;28;19917;-81
2022/06/18 12:27:46;;;;;;;;;;;31.50;36.10;;;;;;5020318;28;19913;-82
2022/06/18 12:30:15;;;;;;;;;;;31.50;36.90;;;;;;5050609;28;19940;-81
2022/06/18 12:32:56;;;;;;;;;;;31.60;36.60;;;;;;5035354;28;19958;-80
2022/06/18 12:35:25;;;;;;;;;;;31.50;36.50;;;;;;5035791;28;20116;-82
2022/06/18 12:38:08;;;;;;;;;;;31.50;37.10;;;;;;5046714;28;19921;-82
2022/06/18 12:40:43;;;;;;;;;;;31.50;37.50;;;;;;5021628;28;19992;-82
2022/06/18 12:43:09;;;;;;;;;;;31.40;38.30;;;;;;5014257;28;19956;-83
2022/06/18 12:45:51;;;;;;;;;;;31.40;38.50;;;;;;5029047;28;19944;-83
2022/06/18 12:48:25;;;;;;;;;;;31.60;38.40;;;;;;5032973;28;19943;-83
2022/06/18 12:50:54;;;;;;;;;;;31.60;38.20;;;;;;5027016;28;20353;-83
2022/06/18 12:53:30;;;;;;;;;;;31.90;37.40;;;;;;5031290;28;19912;-83
2022/06/18 12:56:02;;;;;;;;;;;31.90;37.30;;;;;;5042497;28;19994;-82
2022/06/18 12:58:27;;;;;;;;;;;31.90;37.80;;;;;;5023967;28;19916;-84
2022/06/18 13:00:59;;;;;;;;;;;31.90;37.70;;;;;;5042976;28;19913;-83
2022/06/18 13:03:28;;;;;;;;;;;31.90;37.30;;;;;;5016945;28;20029;-85
2022/06/18 13:05:56;;;;;;;;;;;32.00;36.40;;;;;;5023741;28;20403;-81
2022/06/18 13:08:25;;;;;;;;;;;32.20;36.90;;;;;;5032500;28;19974;-81
2022/06/18 13:11:00;;;;;;;;;;;32.50;35.80;;;;;;5025259;28;19971;-82
2022/06/18 13:13:41;;;;;;;;;;;32.40;35.70;;;;;;5027101;28;19916;-82
2022/06/18 13:16:06;;;;;;;;;;;32.20;36.70;;;;;;5035630;28;19967;-81
2022/06/18 13:18:40;;;;;;;;;;;32.30;36.40;;;;;;5038827;28;19916;-82
2022/06/18 13:21:07;;;;;;;;;;;32.40;36.90;;;;;;5044247;28;19988;-81
2022/06/18 13:29:14;;;;;;;;;;;32.40;36.30;;;;;;5051673;28;19932;-82
2022/06/18 13:31:46;;;;;;;;;;;32.60;36.50;;;;;;5026067;28;19988;-80
2022/06/18 13:34:23;;;;;;;;;;;32.60;35.80;;;;;;5047530;28;20008;-81
2022/06/18 13:36:48;;;;;;;;;;;32.50;36.20;;;;;;5036734;28;19920;-82
2022/06/18 13:39:21;;;;;;;;;;;32.50;36.40;;;;;;5020584;28;19912;-81
2022/06/18 13:41:46;;;;;;;;;;;32.40;36.30;;;;;;5033284;28;19912;-81
2022/06/18 13:44:18;;;;;;;;;;;32.50;36.80;;;;;;5035778;28;19934;-80
2022/06/18 13:46:51;;;;;;;;;;;32.50;36.00;;;;;;5013326;28;19909;-81
2022/06/18 13:49:26;;;;;;;;;;;32.50;36.30;;;;;;5031601;28;19916;-81
2022/06/18 13:52:01;;;;;;;;;;;32.60;36.70;;;;;;5034293;28;19992;-80
2022/06/18 13:54:37;;;;;;;;;;;32.60;36.00;;;;;;5030166;28;20298;-81
2022/06/18 13:57:04;;;;;;;;;;;32.60;36.80;;;;;;5037199;28;19913;-80
2022/06/18 13:59:31;;;;;;;;;;;32.60;36.20;;;;;;5042487;28;19916;-80
2022/06/18 14:02:02;;;;;;;;;;;32.70;36.40;;;;;;5049119;28;19917;-79
2022/06/18 14:04:34;;;;;;;;;;;32.70;36.50;;;;;;5058394;28;20031;-81
2022/06/18 14:07:01;;;;;;;;;;;32.80;36.30;;;;;;5024057;28;19928;-82
2022/06/18 14:09:28;;;;;;;;;;;32.80;36.70;;;;;;5048834;28;19944;-82
2022/06/18 14:11:59;;;;;;;;;;;32.80;36.10;;;;;;5049239;28;20308;-84
2022/06/18 14:14:27;;;;;;;;;;;32.80;36.60;;;;;;5032268;28;20319;-81
2022/06/18 14:16:58;;;;;;;;;;;32.90;36.70;;;;;;5036344;28;20281;-82
2022/06/18 14:19:23;;;;;;;;;;;33.00;36.50;;;;;;5039831;28;20089;-82
2022/06/18 14:21:59;;;;;;;;;;;33.00;36.10;;;;;;5029199;28;19913;-83
2022/06/18 14:24:35;;;;;;;;;;;33.00;35.80;;;;;;5066162;28;20364;-83
2022/06/18 14:27:00;;;;;;;;;;;32.90;36.30;;;;;;5047095;28;19970;-82
2022/06/18 14:29:37;;;;;;;;;;;32.90;36.20;;;;;;5054476;28;19913;-83
2022/06/18 14:32:08;;;;;;;;;;;33.00;36.40;;;;;;5046727;28;19916;-83
2022/06/18 14:34:33;;;;;;;;;;;33.00;36.40;;;;;;5043309;28;19923;-84
2022/06/18 14:37:04;;;;;;;;;;;33.00;36.70;;;;;;5030009;28;19978;-83
2022/06/18 14:39:39;;;;;;;;;;;33.10;36.20;;;;;;5036444;28;19940;-83
2022/06/18 14:42:34;;;;;;;;;;;33.10;37.00;;;;;;5026034;28;19920;-83
2022/06/18 14:45:12;;;;;;;;;;;33.10;36.00;;;;;;5029960;28;19921;-82
2022/06/18 14:47:37;;;;;;;;;;;33.10;36.00;;;;;;5049552;28;19925;-83